Time;durP1;ratioP1;P1;durP2;ratioP2;P2;SDS_P1;SDS_P2;PMS_P1;PMS_P2;Temp;Humidity;BMP_temperature;BMP_pressure;BME280_temperature;BME280_humidity;BME280_pressure;Samples;Min_cycle;Max_cycle;Signal;HPM_P1;HPM_P2
2022/10/26 00:01:18;;;;;;;11.10;6.87;;;;;;;10.38;100.00;101258.88;5023175;28;20037;-93
2022/10/26 00:03:45;;;;;;;11.37;6.80;;;;;;;10.40;100.00;101245.97;5020923;28;20040;-93
2022/10/26 00:06:13;;;;;;;13.83;7.03;;;;;;;10.42;100.00;101252.03;5034113;28;20041;-93
2022/10/26 00:09:00;;;;;;;10.20;6.57;;;;;;;10.43;100.00;101251.81;5015970;28;21423;-93
2022/10/26 00:11:26;;;;;;;12.27;6.33;;;;;;;10.45;100.00;101248.91;5019307;28;20065;-91
2022/10/26 00:14:47;;;;;;;11.83;6.87;;;;;;;10.49;100.00;101243.94;5033495;28;20047;-92
2022/10/26 00:17:12;;;;;;;11.40;6.40;;;;;;;10.49;100.00;101236.63;5033162;28;20136;-92
2022/10/26 00:19:38;;;;;;;11.90;6.37;;;;;;;10.52;100.00;101229.97;5000117;28;20040;-92
2022/10/26 00:22:03;;;;;;;11.87;6.70;;;;;;;10.50;100.00;101218.47;5001614;28;20029;-92
2022/10/26 00:24:29;;;;;;;11.17;6.70;;;;;;;10.54;100.00;101231.44;5022137;28;20190;-94
2022/10/26 00:26:54;;;;;;;11.97;6.40;;;;;;;10.51;100.00;101220.16;5023320;28;20673;-93
2022/10/26 00:29:19;;;;;;;11.57;6.60;;;;;;;10.56;100.00;101223.94;5038240;28;20036;-92
2022/10/26 00:31:45;;;;;;;12.07;6.40;;;;;;;10.57;100.00;101222.06;5023689;28;20037;-93
2022/10/26 00:34:10;;;;;;;9.90;6.37;;;;;;;10.58;100.00;101216.44;5026370;28;20045;-93
2022/10/26 00:36:36;;;;;;;11.57;6.77;;;;;;;10.57;100.00;101209.34;5024704;28;20098;-93
2022/10/26 00:39:02;;;;;;;11.90;6.80;;;;;;;10.58;100.00;101210.19;5026159;28;20038;-91
2022/10/26 00:41:31;;;;;;;11.40;6.63;;;;;;;10.59;100.00;101217.28;5026678;28;20041;-93
2022/10/26 00:43:57;;;;;;;11.37;6.83;;;;;;;10.62;100.00;101215.00;5022887;28;20092;-92
2022/10/26 00:46:30;;;;;;;11.50;7.10;;;;;;;10.64;100.00;101215.63;5023312;28;20497;-91
2022/10/26 00:49:08;;;;;;;13.50;7.30;;;;;;;10.65;100.00;101202.94;5005777;28;20036;-94
2022/10/26 00:51:39;;;;;;;11.17;7.20;;;;;;;10.63;100.00;101188.72;5026884;28;20077;-93
2022/10/26 00:54:10;;;;;;;11.27;7.20;;;;;;;10.66;100.00;101193.75;5030665;28;20451;-92
2022/10/26 00:56:36;;;;;;;10.77;7.20;;;;;;;10.62;100.00;101173.50;5032852;28;20052;-94
2022/10/26 00:59:06;;;;;;;12.70;7.23;;;;;;;10.64;100.00;101196.66;5024174;28;20074;-95
2022/10/26 01:01:35;;;;;;;10.53;7.00;;;;;;;10.63;100.00;101197.72;5024298;28;20094;-94
2022/10/26 01:04:01;;;;;;;11.07;7.30;;;;;;;10.72;100.00;101214.63;5013141;28;20045;-93
2022/10/26 01:06:31;;;;;;;13.47;7.37;;;;;;;10.73;100.00;101213.59;5021445;28;20041;-93
2022/10/26 01:08:56;;;;;;;11.63;7.17;;;;;;;10.74;100.00;101217.97;5020894;28;20044;-95
2022/10/26 01:11:21;;;;;;;13.10;7.43;;;;;;;10.72;100.00;101208.38;5021590;28;21384;-93
2022/10/26 01:13:49;;;;;;;11.27;7.40;;;;;;;10.76;100.00;101218.59;5021293;28;20049;-94
2022/10/26 01:16:49;;;;;;;12.67;7.67;;;;;;;10.74;100.00;101209.84;5022549;28;20480;-94
2022/10/26 01:19:39;;;;;;;12.50;7.43;;;;;;;10.80;100.00;101214.44;5021380;28;20068;-95
2022/10/26 01:22:13;;;;;;;14.00;7.10;;;;;;;10.78;100.00;101202.13;5021056;28;20120;-92
2022/10/26 01:25:11;;;;;;;12.50;7.37;;;;;;;10.82;100.00;101195.25;5022987;28;20583;-92
2022/10/26 01:27:40;;;;;;;10.93;7.20;;;;;;;10.80;100.00;101197.34;5022300;28;21111;-94
2022/10/26 01:30:26;;;;;;;13.13;7.63;;;;;;;10.77;100.00;101186.88;5021199;28;20072;-94
2022/10/26 01:33:26;;;;;;;10.87;7.17;;;;;;;10.81;100.00;101189.00;5022848;28;20034;-94
2022/10/26 01:36:02;;;;;;;12.13;7.07;;;;;;;10.78;100.00;101186.72;5023372;28;20040;-94
2022/10/26 01:38:46;;;;;;;11.53;6.93;;;;;;;10.78;100.00;101194.84;5004311;28;20041;-93
2022/10/26 01:41:32;;;;;;;12.93;7.10;;;;;;;10.78;100.00;101177.72;5023719;28;20057;-94
2022/10/26 01:44:04;;;;;;;10.37;6.80;;;;;;;10.79;100.00;101179.41;5013005;28;20477;-95
2022/10/26 01:46:34;;;;;;;13.87;7.20;;;;;;;10.77;100.00;101171.47;5022263;28;20040;-92
2022/10/26 01:49:05;;;;;;;12.63;6.83;;;;;;;10.79;100.00;101173.97;5036168;28;20159;-94
2022/10/26 01:51:31;;;;;;;12.73;6.60;;;;;;;10.74;100.00;101161.06;5023838;28;20505;-92
2022/10/26 01:53:57;;;;;;;13.40;7.07;;;;;;;10.73;100.00;101155.81;5022392;28;20033;-92
2022/10/26 01:56:27;;;;;;;12.20;6.67;;;;;;;10.77;100.00;101160.63;5023005;28;20432;-93
2022/10/26 01:59:29;;;;;;;14.50;6.67;;;;;;;10.84;100.00;101155.22;5021061;28;20028;-93
2022/10/26 02:02:13;;;;;;;15.13;6.47;;;;;;;10.82;100.00;101151.88;5019370;28;20463;-94
2022/10/26 02:05:09;;;;;;;14.20;6.77;;;;;;;10.85;100.00;101151.47;5011778;28;20033;-95
2022/10/26 02:07:50;;;;;;;11.17;6.70;;;;;;;10.83;100.00;101145.41;5023626;28;20067;-94
2022/10/26 02:10:33;;;;;;;10.57;6.40;;;;;;;10.86;100.00;101146.88;5023889;28;20418;-95
2022/10/26 02:13:18;;;;;;;15.00;7.07;;;;;;;10.83;100.00;101148.13;5023664;28;20424;-95
2022/10/26 02:16:13;;;;;;;12.95;6.75;;;;;;;10.86;100.00;101147.72;5022073;28;20080;-95
2022/10/26 02:18:38;;;;;;;;;;;;;;;10.95;100.00;101149.19;5023374;28;20041;-94
2022/10/26 02:21:41;;;;;;;12.53;7.23;;;;;;;10.86;100.00;101152.31;5022733;28;20274;-95
2022/10/26 02:24:11;;;;;;;16.77;7.80;;;;;;;10.82;100.00;101143.75;5019055;28;20041;-93
2022/10/26 02:26:39;;;;;;;12.07;7.50;;;;;;;10.80;100.00;101143.13;5021955;28;20041;-94
2022/10/26 02:29:09;;;;;;;11.33;8.30;;;;;;;10.78;100.00;101137.06;5017885;28;20037;-94
2022/10/26 02:31:36;;;;;;;13.03;7.80;;;;;;;10.79;100.00;101145.00;5023966;28;20485;-94
2022/10/26 02:34:06;;;;;;;14.17;8.23;;;;;;;10.78;100.00;101142.50;5024217;28;20548;-95
2022/10/26 02:36:42;;;;;;;13.13;7.80;;;;;;;10.80;100.00;101140.44;5021676;28;20099;-94
2022/10/26 02:39:09;;;;;;;17.30;8.23;;;;;;;10.81;100.00;101139.34;5022599;28;20045;-94
2022/10/26 02:41:38;;;;;;;10.93;7.77;;;;;;;10.81;100.00;101133.94;5036082;28;20035;-94
2022/10/26 02:44:29;;;;;;;14.20;8.33;;;;;;;10.77;100.00;101117.28;5002632;28;20071;-94
2022/10/26 02:46:55;;;;;;;15.60;8.37;;;;;;;10.81;100.00;101123.94;5015802;28;20037;-94
2022/10/26 02:49:21;;;;;;;11.40;8.30;;;;;;;10.79;100.00;101122.47;5037729;28;20033;-90
2022/10/26 02:51:59;;;;;;;14.50;8.27;;;;;;;10.76;100.00;101120.19;5023046;28;20550;-94
2022/10/26 02:54:50;;;;;;;14.00;8.27;;;;;;;10.83;100.00;101125.63;5023423;28;20148;-91
2022/10/26 02:57:25;;;;;;;13.70;8.30;;;;;;;10.77;100.00;101111.84;5023969;28;20072;-95
2022/10/26 02:59:52;;;;;;;13.37;8.03;;;;;;;10.81;100.00;101112.25;5023731;28;20043;-93
2022/10/26 03:02:19;;;;;;;11.80;7.83;;;;;;;10.78;100.00;101120.81;5025315;28;20496;-92
2022/10/26 03:04:44;;;;;;;12.30;7.93;;;;;;;10.72;100.00;101108.09;5016214;28;20034;-93
2022/10/26 03:07:10;;;;;;;13.47;7.40;;;;;;;10.79;100.00;101114.34;5020465;28;20052;-95
2022/10/26 03:09:35;;;;;;;16.60;7.67;;;;;;;10.76;100.00;101109.34;5021184;28;20687;-94
2022/10/26 03:12:01;;;;;;;12.43;7.53;;;;;;;10.79;100.00;101109.75;5021151;28;20096;-94
2022/10/26 03:14:26;;;;;;;14.57;7.80;;;;;;;10.77;100.00;101111.84;5022194;28;20049;-96
2022/10/26 03:16:51;;;;;;;12.43;7.07;;;;;;;10.72;100.00;101105.38;5023289;28;20053;-93
2022/10/26 03:19:17;;;;;;;13.20;6.93;;;;;;;10.75;100.00;101107.69;5037807;28;20036;-94
2022/10/26 03:21:42;;;;;;;10.97;7.30;;;;;;;10.74;100.00;101100.59;5022256;28;20088;-94
2022/10/26 03:24:08;;;;;;;11.23;7.00;;;;;;;10.76;100.00;101103.94;5019927;28;20045;-93
2022/10/26 03:26:34;;;;;;;12.70;6.63;;;;;;;10.70;100.00;101099.31;5035963;28;20037;-94
2022/10/26 03:28:59;;;;;;;13.10;6.90;;;;;;;10.74;100.00;101112.28;5022794;28;20048;-96
2022/10/26 03:31:25;;;;;;;13.47;6.70;;;;;;;10.76;100.00;101109.34;5036086;28;20405;-93
2022/10/26 03:33:50;;;;;;;12.63;6.30;;;;;;;10.73;100.00;101113.31;5025075;28;20063;-92
2022/10/26 03:36:15;;;;;;;10.53;6.10;;;;;;;10.76;100.00;101115.59;5023394;28;20064;-94
2022/10/26 03:38:41;;;;;;;14.53;7.00;;;;;;;10.75;100.00;101108.50;5024909;28;20041;-94
2022/10/26 03:41:06;;;;;;;10.00;6.13;;;;;;;10.79;100.00;101114.34;5035798;28;20037;-92
2022/10/26 03:43:31;;;;;;;10.43;6.23;;;;;;;10.81;100.00;101109.53;5005426;28;20060;-94
2022/10/26 03:45:57;;;;;;;15.93;7.40;;;;;;;10.76;100.00;101093.09;5022481;28;20087;-95
2022/10/26 03:48:22;;;;;;;14.50;6.60;;;;;;;10.81;100.00;101101.41;5024311;28;20544;-93
2022/10/26 03:50:47;;;;;;;13.57;6.23;;;;;;;10.82;100.00;101092.25;5022900;28;20186;-93
2022/10/26 03:53:13;;;;;;;9.97;5.50;;;;;;;10.83;100.00;101102.06;5023121;28;20124;-94
2022/10/26 03:55:38;;;;;;;11.73;6.20;;;;;;;10.82;100.00;101097.66;5020528;28;20789;-93
2022/10/26 03:58:03;;;;;;;15.33;6.30;;;;;;;10.81;100.00;101098.69;5005696;28;20503;-93
2022/10/26 04:00:29;;;;;;;12.37;6.10;;;;;;;10.79;100.00;101100.81;5024739;28;21242;-93
2022/10/26 04:02:57;;;;;;;9.03;5.63;;;;;;;10.82;100.00;101103.09;5027335;28;20032;-91
2022/10/26 04:05:24;;;;;;;10.57;6.37;;;;;;;10.82;100.00;101092.25;5024060;28;20033;-92
2022/10/26 04:07:54;;;;;;;10.30;5.83;;;;;;;10.82;100.00;101097.66;5025495;28;20061;-94
2022/10/26 04:10:20;;;;;;;10.13;6.20;;;;;;;10.80;100.00;101097.06;5026185;28;20482;-94
2022/10/26 04:12:45;;;;;;;10.83;6.17;;;;;;;10.80;100.00;101099.75;5041067;28;20037;-94
2022/10/26 04:15:10;;;;;;;10.57;6.30;;;;;;;10.83;100.00;101098.53;5025177;28;20041;-93
2022/10/26 04:17:36;;;;;;;10.77;5.87;;;;;;;10.82;100.00;101103.09;5008121;28;20083;-93
2022/10/26 04:20:01;;;;;;;8.03;5.67;;;;;;;10.87;100.00;101111.44;5024526;28;20056;-93
2022/10/26 04:22:27;;;;;;;11.90;6.00;;;;;;;10.84;100.00;101095.59;5023458;28;20269;-93
2022/10/26 04:24:52;;;;;;;8.87;6.10;;;;;;;10.81;100.00;101090.56;5037835;28;20041;-93
2022/10/26 04:27:17;;;;;;;10.20;6.03;;;;;;;10.88;100.00;101099.56;5038838;28;20087;-94
2022/10/26 04:29:43;;;;;;;12.87;6.63;;;;;;;10.83;100.00;101093.94;5023980;28;20088;-92
2022/10/26 04:32:08;;;;;;;11.20;5.97;;;;;;;10.93;100.00;101107.91;5038703;28;20457;-93
2022/10/26 04:34:33;;;;;;;12.93;6.17;;;;;;;10.93;100.00;101097.06;5022702;28;20033;-93
2022/10/26 04:36:59;;;;;;;10.77;6.37;;;;;;;10.89;100.00;101084.13;5038392;28;20037;-93
2022/10/26 04:39:24;;;;;;;14.63;6.00;;;;;;;10.93;100.00;101094.34;5040549;28;20068;-95
2022/10/26 04:41:50;;;;;;;14.70;6.37;;;;;;;10.96;100.00;101088.50;5005381;28;20075;-95
2022/10/26 04:44:15;;;;;;;14.03;6.43;;;;;;;10.97;100.00;101090.19;5025722;28;20038;-94
2022/10/26 04:46:41;;;;;;;12.17;6.20;;;;;;;10.97;100.00;101083.91;5027154;28;20561;-94
2022/10/26 04:49:06;;;;;;;14.10;6.60;;;;;;;11.01;100.00;101089.75;5043564;28;20036;-94
2022/10/26 04:51:46;;;;;;;13.93;6.60;;;;;;;11.02;100.00;101086.00;5024620;28;20408;-93
2022/10/26 04:54:12;;;;;;;13.00;6.40;;;;;;;11.04;100.00;101090.16;5024212;28;20044;-92
2022/10/26 04:56:37;;;;;;;10.97;6.40;;;;;;;11.06;100.00;101088.09;5034109;28;20025;-93
2022/10/26 04:59:03;;;;;;;13.60;6.40;;;;;;;11.04;100.00;101084.72;5029253;28;20040;-93
2022/10/26 05:01:30;;;;;;;11.20;6.13;;;;;;;11.10;100.00;101093.94;5031572;28;20049;-94
2022/10/26 05:03:55;;;;;;;11.60;6.20;;;;;;;11.10;100.00;101093.94;5028070;28;20037;-95
2022/10/26 05:06:21;;;;;;;12.27;6.27;;;;;;;11.12;100.00;101092.69;5041934;28;20504;-93
2022/10/26 05:08:46;;;;;;;10.97;6.37;;;;;;;11.13;100.00;101090.78;5023814;28;20773;-93
2022/10/26 05:11:12;;;;;;;14.40;6.70;;;;;;;11.11;100.00;101084.72;5037132;28;20091;-93
2022/10/26 05:13:37;;;;;;;12.27;5.70;;;;;;;11.21;100.00;101096.00;5021811;28;20517;-93
2022/10/26 05:16:03;;;;;;;13.97;6.30;;;;;;;11.24;100.00;101090.16;5020884;28;20452;-93
2022/10/26 05:18:28;;;;;;;11.87;6.70;;;;;;;11.17;100.00;101078.50;5022765;28;21286;-92
2022/10/26 05:20:54;;;;;;;12.70;7.00;;;;;;;11.25;100.00;101089.13;5022109;28;20636;-93
2022/10/26 05:23:20;;;;;;;10.50;6.60;;;;;;;11.30;100.00;101094.75;5022306;28;20657;-91
2022/10/26 05:25:46;;;;;;;14.27;6.97;;;;;;;11.26;100.00;101088.06;5022828;28;20128;-92
2022/10/26 05:28:13;;;;;;;12.27;5.73;;;;;;;11.34;100.00;101094.31;5021626;28;20029;-92
2022/10/26 05:30:40;;;;;;;13.37;6.23;;;;;;;11.37;100.00;101089.31;5019909;28;20417;-90
2022/10/26 05:33:06;;;;;;;11.20;6.50;;;;;;;11.43;100.00;101095.78;4987405;28;20489;-92
2022/10/26 05:35:32;;;;;;;11.60;5.70;;;;;;;11.44;100.00;101098.28;5002685;28;20037;-91
2022/10/26 05:37:58;;;;;;;10.87;6.57;;;;;;;11.44;100.00;101092.03;5022464;28;20029;-91
2022/10/26 05:40:24;;;;;;;10.63;6.23;;;;;;;11.51;100.00;101102.88;5020378;28;20781;-93
2022/10/26 05:42:49;;;;;;;13.67;7.17;;;;;;;11.49;100.00;101105.75;5021940;28;20052;-93
2022/10/26 05:45:17;;;;;;;14.77;6.47;;;;;;;11.48;100.00;101104.13;5020153;28;20045;-95
2022/10/26 05:47:43;;;;;;;11.03;6.23;;;;;;;11.53;100.00;101101.59;5020394;28;20025;-93
2022/10/26 05:50:10;;;;;;;10.63;6.60;;;;;;;11.55;100.00;101104.94;5014687;28;20038;-93
2022/10/26 05:53:10;;;;;;;12.30;6.33;;;;;;;11.58;100.00;101114.53;5020414;28;20052;-93
2022/10/26 05:55:36;;;;;;;10.70;6.17;;;;;;;11.59;100.00;101111.59;5035696;28;20037;-91
2022/10/26 05:58:02;;;;;;;10.33;5.90;;;;;;;11.62;100.00;101121.19;5021572;28;20089;-95
2022/10/26 06:00:28;;;;;;;11.70;5.90;;;;;;;11.63;100.00;101120.16;5023915;28;20037;-94
2022/10/26 06:03:05;;;;;;;11.43;6.13;;;;;;;11.66;100.00;101115.13;5020627;28;20063;-94
2022/10/26 06:05:37;;;;;;;12.10;5.77;;;;;;;11.66;100.00;101128.69;5020752;28;20408;-95
2022/10/26 06:08:08;;;;;;;10.90;6.10;;;;;;;11.65;100.00;101123.47;5021582;28;21042;-93
2022/10/26 06:10:34;;;;;;;12.53;5.53;;;;;;;11.74;100.00;101133.06;5002579;28;20421;-92
2022/10/26 06:13:00;;;;;;;17.37;5.80;;;;;;;11.73;100.00;101130.56;5024207;28;20038;-95
2022/10/26 06:15:25;;;;;;;9.37;5.43;;;;;;;11.78;100.00;101134.31;5022540;28;20120;-94
2022/10/26 06:18:03;;;;;;;8.50;5.53;;;;;;;11.75;100.00;101133.91;5018754;28;20091;-94
2022/10/26 06:20:49;;;;;;;8.87;5.37;;;;;;;11.76;100.00;101135.56;5020155;28;20080;-93
2022/10/26 06:23:40;;;;;;;11.03;5.50;;;;;;;11.75;100.00;101128.47;5021865;28;20033;-93
2022/10/26 06:26:40;;;;;;;13.77;6.40;;;;;;;11.81;100.00;101128.44;5016938;28;20029;-94
2022/10/26 06:29:36;;;;;;;9.17;5.73;;;;;;;11.81;100.00;101138.50;5001396;28;20114;-93
2022/10/26 06:32:01;;;;;;;10.90;5.80;;;;;;;11.81;100.00;101143.91;5025357;28;20041;-93
2022/10/26 06:34:33;;;;;;;10.70;5.67;;;;;;;11.78;100.00;101138.94;5025148;28;20045;-92
2022/10/26 06:36:59;;;;;;;11.40;5.57;;;;;;;11.80;100.00;101140.38;5030342;28;20040;-91
2022/10/26 06:39:28;;;;;;;11.93;5.50;;;;;;;11.78;100.00;101133.50;5025691;28;20041;-93
2022/10/26 06:41:56;;;;;;;12.00;5.70;;;;;;;11.77;100.00;101134.53;5038818;28;20470;-93
2022/10/26 06:44:22;;;;;;;10.67;5.43;;;;;;;11.78;100.00;101134.31;5024141;28;20048;-93
2022/10/26 06:46:52;;;;;;;10.73;5.40;;;;;;;11.75;100.00;101136.59;5024083;28;20103;-92
2022/10/26 06:49:27;;;;;;;12.03;5.43;;;;;;;11.76;100.00;101135.56;5039462;28;20032;-93
2022/10/26 06:52:28;;;;;;;11.07;5.60;;;;;;;11.76;100.00;101130.16;5024608;28;20111;-92
2022/10/26 06:54:54;;;;;;;10.97;5.40;;;;;;;11.71;100.00;101119.94;5019517;28;20132;-93
2022/10/26 06:57:22;;;;;;;11.50;5.50;;;;;;;11.72;100.00;101118.03;5035517;28;21018;-94
2022/10/26 06:59:52;;;;;;;13.20;5.70;;;;;;;11.74;100.00;101114.06;5021389;28;20752;-94
2022/10/26 07:02:18;;;;;;;9.73;5.40;;;;;;;11.76;100.00;101113.84;5035265;28;20053;-94
2022/10/26 07:04:44;;;;;;;10.90;5.47;;;;;;;11.78;100.00;101117.22;5012727;28;20503;-94
2022/10/26 07:07:16;;;;;;;8.83;5.27;;;;;;;11.80;100.00;101109.66;5013114;28;20057;-94
2022/10/26 07:09:42;;;;;;;10.40;5.20;;;;;;;11.86;100.00;101119.69;5021370;28;20037;-94
2022/10/26 07:12:08;;;;;;;8.67;5.03;;;;;;;11.94;100.00;101124.91;5020022;28;20064;-93
2022/10/26 07:14:34;;;;;;;9.30;4.83;;;;;;;11.90;100.00;101114.63;5002973;28;20045;-94
2022/10/26 07:16:59;;;;;;;11.43;5.10;;;;;;;11.95;100.00;101112.16;5018903;28;20386;-94
2022/10/26 07:19:25;;;;;;;9.40;5.10;;;;;;;11.96;100.00;101125.50;5019253;28;20036;-93
2022/10/26 07:21:53;;;;;;;11.03;5.53;;;;;;;12.05;100.00;101141.56;5035443;28;20056;-94
2022/10/26 07:24:18;;;;;;;8.90;4.90;;;;;;;12.11;100.00;101148.88;5020203;28;20492;-94
2022/10/26 07:26:43;;;;;;;10.30;5.50;;;;;;;12.21;100.00;101159.28;5020436;28;20327;-94
2022/10/26 07:29:09;;;;;;;9.10;5.20;;;;;;;12.31;100.00;101140.66;5019917;28;20782;-93
2022/10/26 07:31:34;;;;;;;12.63;5.73;;;;;;;12.45;100.00;101144.13;5036454;28;20069;-93
2022/10/26 07:34:00;;;;;;;13.67;5.90;;;;;;;12.63;100.00;101152.41;5007309;28;20033;-93
2022/10/26 07:36:25;;;;;;;11.37;5.73;;;;;;;12.89;100.00;101164.16;5021689;28;20467;-94
2022/10/26 07:38:52;;;;;;;13.80;5.70;;;;;;;13.10;100.00;101168.41;5022864;28;20041;-93
2022/10/26 07:41:17;;;;;;;9.40;5.30;;;;;;;13.30;100.00;101173.69;5022212;28;20037;-94
2022/10/26 07:43:44;;;;;;;11.23;5.10;;;;;;;13.56;100.00;101177.25;5006620;28;20056;-91
2022/10/26 07:46:10;;;;;;;11.47;4.77;;;;;;;13.74;98.89;101164.75;5035485;28;20135;-93
2022/10/26 07:48:35;;;;;;;9.23;4.30;;;;;;;13.94;97.53;101170.81;5023152;28;20049;-89
2022/10/26 07:51:01;;;;;;;9.07;4.30;;;;;;;14.05;96.64;101163.78;5021365;28;20112;-93
2022/10/26 07:53:27;;;;;;;11.77;4.30;;;;;;;14.29;95.09;101172.94;5024118;28;20132;-91
2022/10/26 07:55:56;;;;;;;10.20;4.50;;;;;;;14.46;93.99;101180.47;5020718;28;20386;-92
2022/10/26 07:58:24;;;;;;;10.20;4.47;;;;;;;14.64;93.00;101194.09;5038858;28;20394;-90
2022/10/26 08:00:51;;;;;;;11.57;4.23;;;;;;;14.85;91.90;101205.56;5021941;28;20035;-90
2022/10/26 08:03:17;;;;;;;7.60;3.70;;;;;;;15.17;93.47;101216.22;5038256;28;20041;-92
2022/10/26 08:05:46;;;;;;;8.03;4.40;;;;;;;15.33;91.70;101214.72;5023153;28;20095;-89
2022/10/26 08:08:11;;;;;;;8.83;4.03;;;;;;;15.16;89.54;101207.22;5022072;28;20595;-91
2022/10/26 08:10:41;;;;;;;9.53;4.10;;;;;;;15.11;90.32;101203.50;5022460;28;20060;-89
2022/10/26 08:13:06;;;;;;;6.37;4.10;;;;;;;15.07;90.60;101208.59;5038132;28;20154;-92
2022/10/26 08:15:47;;;;;;;9.13;4.07;;;;;;;15.19;91.70;101205.91;5022919;28;20152;-91
2022/10/26 08:18:13;;;;;;;8.87;3.83;;;;;;;15.47;90.30;101218.06;5022308;28;20069;-93
2022/10/26 08:20:38;;;;;;;7.60;4.00;;;;;;;15.62;90.45;101223.88;5038531;28;20793;-91
2022/10/26 08:23:05;;;;;;;8.37;4.37;;;;;;;15.53;88.92;101215.22;5022924;28;20041;-94
2022/10/26 08:25:32;;;;;;;8.83;4.10;;;;;;;15.73;91.09;101227.69;5037030;28;20034;-89
2022/10/26 08:28:02;;;;;;;8.10;3.77;;;;;;;15.69;89.40;101213.69;5023301;28;20120;-94
2022/10/26 08:30:28;;;;;;;9.73;3.90;;;;;;;15.63;88.84;101209.16;5023645;28;20037;-91
2022/10/26 08:33:00;;;;;;;8.33;4.10;;;;;;;15.53;89.91;101214.41;5014323;28;20052;-94
2022/10/26 08:35:26;;;;;;;6.90;3.83;;;;;;;15.42;90.50;101217.94;5021423;28;20523;-92
2022/10/26 08:37:52;;;;;;;8.33;4.00;;;;;;;15.61;90.84;101219.50;5005904;28;20037;-91
2022/10/26 08:40:27;;;;;;;9.77;3.80;;;;;;;15.73;89.11;101210.47;5022710;28;20060;-89
2022/10/26 08:42:59;;;;;;;9.83;3.93;;;;;;;16.02;88.45;101219.66;5020865;28;20041;-89
2022/10/26 08:45:37;;;;;;;8.57;3.60;;;;;;;16.27;87.83;101233.03;5021876;28;20033;-90
2022/10/26 08:48:09;;;;;;;7.30;3.40;;;;;;;16.36;87.04;101237.06;5004545;28;20030;-90
2022/10/26 08:51:00;;;;;;;8.23;3.73;;;;;;;16.49;85.40;101226.94;5020773;28;20036;-91
2022/10/26 08:53:40;;;;;;;8.30;3.20;;;;;;;16.64;85.50;101231.88;5023912;28;20080;-87
2022/10/26 08:56:19;;;;;;;9.53;3.30;;;;;;;16.73;85.25;101229.56;5036450;28;20042;-93
2022/10/26 08:58:56;;;;;;;7.20;3.50;;;;;;;17.00;84.67;101224.41;5019025;28;20038;-90
2022/10/26 09:01:22;;;;;;;6.33;3.43;;;;;;;17.27;83.79;101218.28;5036583;28;20477;-91
2022/10/26 09:03:47;;;;;;;5.00;3.30;;;;;;;17.30;82.57;101215.03;5020762;28;20053;-91
2022/10/26 09:06:24;;;;;;;9.63;3.77;;;;;;;17.65;82.63;101220.28;5002875;28;20043;-92
2022/10/26 09:09:02;;;;;;;5.47;3.13;;;;;;;17.94;82.29;101211.13;5021430;28;20044;-90
2022/10/26 09:11:50;;;;;;;9.88;3.58;;;;;;;18.07;80.71;101205.28;5022176;28;20531;-89
2022/10/26 09:14:34;;;;;;;5.55;3.10;;;;;;;18.05;80.35;101212.94;5021909;28;20124;-93
2022/10/26 09:17:13;;;;;;;6.90;3.10;;;;;;;18.07;79.38;101220.91;5021179;28;20049;-90
2022/10/26 09:20:02;;;;;;;6.82;3.03;;;;;;;18.14;79.29;101227.03;5022185;28;20030;-84
2022/10/26 09:22:35;;;;;;;7.90;3.38;;;;;;;18.26;79.50;101235.97;5020568;28;20428;-82
2022/10/26 09:25:15;;;;;;;6.70;3.50;;;;;;;18.51;79.11;101242.91;5019847;28;20045;-84
2022/10/26 09:27:45;;;;;;;8.50;3.47;;;;;;;18.64;78.27;101252.66;5019992;28;20037;-84
2022/10/26 09:30:17;;;;;;;7.57;2.95;;;;;;;18.73;77.29;101254.69;5021023;28;20040;-84
2022/10/26 09:32:47;;;;;;;10.05;3.30;;;;;;;18.76;78.19;101260.75;5019762;28;20041;-85
2022/10/26 09:35:30;;;;;;;6.35;2.97;;;;;;;18.98;79.32;101258.81;5020902;28;20070;-83
2022/10/26 09:38:05;;;;;;;7.90;2.53;;;;;;;19.08;76.72;101273.75;5020681;28;20033;-85
2022/10/26 09:40:36;;;;;;;6.63;2.92;;;;;;;19.06;76.80;101277.56;5019237;28;20053;-83
2022/10/26 09:43:04;;;;;;;6.38;2.70;;;;;;;19.30;76.11;101288.28;5019458;28;20033;-88
2022/10/26 09:45:40;;;;;;;5.07;2.70;;;;;;;19.44;76.93;101296.09;5021429;28;20028;-84
2022/10/26 09:48:13;;;;;;;3.17;2.50;;;;;;;19.54;74.79;101298.91;5019341;28;20060;-86
2022/10/26 09:50:43;;;;;;;6.43;2.85;;;;;;;19.53;74.24;101305.53;5001357;28;20083;-83
2022/10/26 09:53:08;;;;;;;7.22;2.75;;;;;;;19.48;73.30;101294.47;5020918;28;20036;-84
2022/10/26 09:55:41;;;;;;;6.28;2.63;;;;;;;19.39;76.76;101299.59;5019096;28;20037;-84
2022/10/26 09:58:13;;;;;;;6.93;2.72;;;;;;;19.08;75.96;101291.06;5020375;28;20041;-84
2022/10/26 10:01:19;;;;;;;7.80;2.70;;;;;;;19.08;76.58;101298.47;5019888;28;20120;-84
2022/10/26 10:03:44;;;;;;;6.03;2.70;;;;;;;19.25;76.19;101309.38;5020600;28;20068;-85
2022/10/26 10:06:19;;;;;;;7.75;2.88;;;;;;;19.23;76.51;101306.88;5001967;28;20072;-85
2022/10/26 10:09:14;;;;;;;5.85;2.65;;;;;;;19.38;77.16;101312.53;5036259;28;20549;-84
2022/10/26 10:11:55;;;;;;;6.80;2.92;;;;;;;19.21;75.47;101320.03;5002114;28;20038;-85
2022/10/26 10:14:39;;;;;;;7.78;2.83;;;;;;;19.34;77.06;101325.13;5019031;28;20383;-85
2022/10/26 10:17:09;;;;;;;5.40;2.70;;;;;;;19.32;74.84;101315.47;5000223;28;20064;-86
2022/10/26 10:19:36;;;;;;;8.55;2.75;;;;;;;19.31;74.34;101328.41;5021312;28;20131;-85
2022/10/26 10:22:22;;;;;;;5.13;2.90;;;;;;;19.61;75.35;101342.69;5001929;28;20735;-85
2022/10/26 10:24:55;;;;;;;7.32;2.70;;;;;;;19.68;74.94;101344.13;5020276;28;20588;-83
2022/10/26 10:27:22;;;;;;;6.35;2.78;;;;;;;19.79;75.89;101347.00;5019011;28;20086;-84
2022/10/26 10:29:54;;;;;;;5.95;2.80;;;;;;;19.89;74.37;101349.84;5020557;28;20042;-85
2022/10/26 10:32:31;;;;;;;6.53;2.80;;;;;;;19.97;75.12;101363.09;5003577;28;20044;-85
2022/10/26 10:34:58;;;;;;;7.32;2.83;;;;;;;19.81;75.46;101367.63;5018858;28;20037;-84
2022/10/26 10:37:45;;;;;;;5.45;2.70;;;;;;;20.03;74.55;101366.72;5019379;28;20037;-86
2022/10/26 10:40:18;;;;;;;9.73;2.67;;;;;;;19.90;75.61;101368.00;5018097;28;20106;-86
2022/10/26 10:42:46;;;;;;;8.60;2.80;;;;;;;20.04;73.33;101373.88;5019675;28;20029;-85
2022/10/26 10:45:23;;;;;;;7.25;2.40;;;;;;;20.03;75.02;101378.56;5001461;28;20296;-87
2022/10/26 10:48:19;;;;;;;5.93;2.78;;;;;;;20.17;75.62;101367.13;5010554;28;20081;-86
2022/10/26 10:50:57;;;;;;;6.28;2.47;;;;;;;20.03;75.12;101384.06;5020075;28;20040;-87
2022/10/26 10:53:55;;;;;;;7.20;2.35;;;;;;;20.17;74.75;101389.13;5019944;28;20041;-88
2022/10/26 10:56:50;;;;;;;6.72;2.53;;;;;;;20.05;73.50;101390.13;5018716;28;20045;-87
2022/10/26 10:59:27;;;;;;;6.07;2.60;;;;;;;19.82;74.49;101393.22;5019072;28;20211;-84
2022/10/26 11:02:04;;;;;;;5.10;2.30;;;;;;;19.86;74.33;101397.13;5018832;28;20033;-87
2022/10/26 11:04:46;;;;;;;6.03;2.53;;;;;;;19.76;75.47;101396.97;5019463;28;20067;-86
2022/10/26 11:07:14;;;;;;;6.65;2.63;;;;;;;19.77;76.18;101398.66;5017825;28;20516;-86
2022/10/26 11:09:44;;;;;;;6.55;2.60;;;;;;;19.76;75.41;101394.22;5020603;28;20084;-85
2022/10/26 11:12:17;;;;;;;6.97;2.50;;;;;;;19.81;76.01;101408.06;5018549;28;20045;-85
2022/10/26 11:14:51;;;;;;;8.23;2.42;;;;;;;19.68;75.42;101410.13;5019018;28;21783;-86
2022/10/26 11:17:29;;;;;;;6.28;2.50;;;;;;;19.65;75.60;101416.13;5018283;28;20060;-84
2022/10/26 11:20:11;;;;;;;6.40;2.40;;;;;;;19.40;77.47;101409.25;5034217;28;20111;-85
2022/10/26 11:22:41;;;;;;;7.30;2.83;;;;;;;19.31;76.48;101409.97;5018655;28;20389;-85
2022/10/26 11:25:23;;;;;;;6.30;2.55;;;;;;;19.18;78.34;101427.69;5019152;28;20754;-83
2022/10/26 11:27:53;;;;;;;4.90;2.30;;;;;;;18.89;79.22;101417.72;5018199;28;20045;-84
2022/10/26 11:30:21;;;;;;;5.07;2.50;;;;;;;18.91;79.85;101420.19;5019052;28;20129;-85
2022/10/26 11:32:50;;;;;;;6.40;2.50;;;;;;;19.11;79.45;101421.53;5017864;28;20025;-85
2022/10/26 11:35:23;;;;;;;6.38;2.80;;;;;;;19.01;80.52;101436.81;5018364;28;20886;-85